Time;durP1;ratioP1;P1;durP2;ratioP2;P2;SDS_P1;SDS_P2;PMS_P1;PMS_P2;Temp;Humidity;BMP_temperature;BMP_pressure;BME280_temperature;BME280_humidity;BME280_pressure;Samples;Min_cycle;Max_cycle;Signal;HPM_P1;HPM_P2
2022/04/24 00:01:07;;;;;;;1.70;1.60;;;;;;;21.49;33.73;100066.66;5011509;28;20034;-68
2022/04/24 00:03:33;;;;;;;1.90;1.80;;;;;;;21.47;33.81;100058.69;5012942;28;20396;-67
2022/04/24 00:05:58;;;;;;;1.70;1.60;;;;;;;21.48;33.61;100057.56;5012385;28;20121;-67
2022/04/24 00:08:24;;;;;;;1.50;1.50;;;;;;;21.46;33.54;100056.22;5012964;28;20474;-68
2022/04/24 00:10:50;;;;;;;1.85;1.63;;;;;;;21.46;33.66;100054.28;4994777;28;20041;-68
2022/04/24 00:13:15;;;;;;;1.40;1.40;;;;;;;21.46;33.49;100057.03;4995654;28;20083;-68
2022/04/24 00:15:41;;;;;;;1.80;1.70;;;;;;;21.46;33.50;100050.72;4995335;28;20033;-68
2022/04/24 00:18:06;;;;;;;1.67;1.58;;;;;;;21.46;32.99;100054.28;5012497;28;20037;-68
2022/04/24 00:20:32;;;;;;;1.90;1.80;;;;;;;21.46;33.66;100054.28;5012563;28;20412;-68
2022/04/24 00:22:57;;;;;;;1.70;1.60;;;;;;;21.46;33.72;100042.44;5012080;28;20037;-68
2022/04/24 00:25:23;;;;;;;1.60;1.40;;;;;;;21.46;33.59;100047.94;5010954;28;20030;-68
2022/04/24 00:27:48;;;;;;;1.73;1.63;;;;;;;21.44;33.69;100039.19;4994495;28;20030;-68
2022/04/24 00:30:13;;;;;;;1.40;1.40;;;;;;;21.45;33.56;100038.88;5012583;28;20034;-68
2022/04/24 00:32:39;;;;;;;1.70;1.60;;;;;;;21.44;33.71;100030.91;5011543;28;20162;-68
2022/04/24 00:35:05;;;;;;;1.60;1.50;;;;;;;21.43;33.89;100038.34;5011981;28;20061;-68
2022/04/24 00:37:30;;;;;;;1.70;1.60;;;;;;;21.43;33.60;100035.56;5010782;28;20042;-68
2022/04/24 00:39:56;;;;;;;1.65;1.60;;;;;;;21.44;33.67;100041.94;5010346;28;20090;-68
2022/04/24 00:42:21;;;;;;;1.83;1.73;;;;;;;21.43;33.67;100040.28;5011150;28;20041;-68
2022/04/24 00:44:47;;;;;;;1.42;1.33;;;;;;;21.43;33.51;100041.09;5012047;28;20061;-68
2022/04/24 00:47:21;;;;;;;1.50;1.40;;;;;;;21.43;33.67;100035.56;5010504;28;20113;-68
2022/04/24 00:49:47;;;;;;;1.45;1.35;;;;;;;21.43;33.67;100045.81;5011710;28;20045;-68
2022/04/24 00:52:13;;;;;;;1.55;1.52;;;;;;;21.42;33.64;100041.41;5011639;28;20474;-68
2022/04/24 00:54:40;;;;;;;1.65;1.55;;;;;;;21.40;33.96;100030.69;5011605;28;20042;-68
2022/04/24 00:57:06;;;;;;;1.70;1.60;;;;;;;21.40;33.81;100029.88;5011651;28;20112;-68
2022/04/24 00:59:32;;;;;;;1.67;1.58;;;;;;;21.40;33.83;100040.91;5011576;28;20117;-68
2022/04/24 01:01:59;;;;;;;1.48;1.48;;;;;;;21.40;33.39;100041.72;5011630;28;20108;-68
2022/04/24 01:04:24;;;;;;;1.42;1.42;;;;;;;21.39;33.59;100034.56;5011526;28;20034;-68
2022/04/24 01:06:50;;;;;;;1.48;1.38;;;;;;;21.37;33.59;100023.03;5011781;28;20470;-68
2022/04/24 01:09:17;;;;;;;1.60;1.50;;;;;;;21.39;33.88;100037.31;5009876;28;20068;-68
2022/04/24 01:11:44;;;;;;;1.55;1.45;;;;;;;21.38;33.60;100039.25;5011142;28;20075;-68
2022/04/24 01:14:11;;;;;;;1.60;1.50;;;;;;;21.37;33.69;100031.28;5011396;28;20033;-68
2022/04/24 01:16:37;;;;;;;1.70;1.60;;;;;;;21.37;33.73;100034.84;5011324;28;20026;-68
2022/04/24 01:19:04;;;;;;;1.70;1.60;;;;;;;21.37;33.94;100025.78;5011599;28;20140;-68
2022/04/24 01:21:29;;;;;;;1.60;1.50;;;;;;;21.37;33.72;100034.06;5009865;28;20026;-68
2022/04/24 01:23:54;;;;;;;1.30;1.30;;;;;;;21.37;33.64;100037.63;5011260;28;20079;-68
2022/04/24 01:26:20;;;;;;;1.45;1.35;;;;;;;21.37;33.86;100040.38;5010980;28;20112;-68
2022/04/24 01:28:45;;;;;;;1.75;1.65;;;;;;;21.36;33.82;100038.75;4993930;28;20033;-68
2022/04/24 01:31:11;;;;;;;1.70;1.60;;;;;;;21.36;33.98;100047.03;5011455;28;20352;-68
2022/04/24 01:33:36;;;;;;;1.60;1.50;;;;;;;21.36;33.89;100037.94;5011136;28;20041;-68
2022/04/24 01:36:02;;;;;;;1.70;1.60;;;;;;;21.36;33.45;100040.69;5011103;28;20040;-68
2022/04/24 01:38:29;;;;;;;1.67;1.60;;;;;;;21.34;33.90;100034.69;5011887;28;20106;-68
2022/04/24 01:40:55;;;;;;;1.52;1.50;;;;;;;21.36;33.76;100040.69;4993622;28;20030;-68
2022/04/24 01:43:20;;;;;;;1.63;1.52;;;;;;;21.34;33.68;100038.25;5011240;28;20041;-68
2022/04/24 01:45:46;;;;;;;1.60;1.50;;;;;;;21.34;33.88;100031.91;5011519;28;20091;-68
2022/04/24 01:48:11;;;;;;;1.67;1.58;;;;;;;21.34;33.87;100042.94;5010187;28;20040;-67
2022/04/24 01:50:37;;;;;;;1.40;1.35;;;;;;;21.33;33.85;100033.88;5011362;28;20034;-68
2022/04/24 01:53:02;;;;;;;1.60;1.50;;;;;;;21.32;33.69;100032.22;5010546;28;20103;-68
2022/04/24 01:55:28;;;;;;;1.40;1.40;;;;;;;21.32;33.78;100034.97;5009634;28;20026;-68
2022/04/24 01:57:53;;;;;;;1.58;1.48;;;;;;;21.32;33.71;100032.22;5011146;28;20530;-68
2022/04/24 02:00:19;;;;;;;1.83;1.73;;;;;;;21.32;33.69;100039.69;5010783;28;20037;-68
2022/04/24 02:02:46;;;;;;;1.50;1.50;;;;;;;21.33;33.62;100038.56;5011306;28;20087;-68
2022/04/24 02:05:12;;;;;;;1.50;1.40;;;;;;;21.31;33.84;100043.56;5010700;28;20488;-68
2022/04/24 02:07:37;;;;;;;1.38;1.38;;;;;;;21.30;33.99;100034.44;5010749;28;20037;-68
2022/04/24 02:10:03;;;;;;;1.77;1.67;;;;;;;21.31;33.91;100044.38;5011103;28;20466;-68
2022/04/24 02:12:30;;;;;;;1.35;1.35;;;;;;;21.30;33.86;100036.41;5009965;28;20034;-68
2022/04/24 02:14:55;;;;;;;1.70;1.60;;;;;;;21.31;33.87;100035.28;5012337;28;20037;-68
2022/04/24 02:17:21;;;;;;;1.40;1.40;;;;;;;21.31;33.72;100040.81;5014043;28;20474;-68
2022/04/24 02:19:46;;;;;;;2.00;1.80;;;;;;;21.30;33.87;100044.69;5012894;28;20038;-68
2022/04/24 02:22:12;;;;;;;1.77;1.63;;;;;;;21.30;33.86;100034.44;5013818;28;20144;-68
2022/04/24 02:24:37;;;;;;;1.60;1.50;;;;;;;21.29;33.73;100037.53;5013709;28;20554;-68
2022/04/24 02:27:03;;;;;;;1.80;1.70;;;;;;;21.28;33.86;100033.16;5012982;28;20442;-68
2022/04/24 02:29:28;;;;;;;1.92;1.83;;;;;;;21.27;34.05;100035.06;5014168;28;20034;-68
2022/04/24 02:31:54;;;;;;;1.52;1.50;;;;;;;21.27;33.92;100037.03;5012415;28;20038;-68
2022/04/24 02:34:19;;;;;;;1.60;1.50;;;;;;;21.28;33.53;100047.75;5012571;28;20033;-68
2022/04/24 02:36:45;;;;;;;1.70;1.60;;;;;;;21.28;33.67;100038.66;5014045;28;20030;-68
2022/04/24 02:39:10;;;;;;;1.70;1.60;;;;;;;21.28;33.68;100042.22;5012441;28;20393;-68
2022/04/24 02:41:36;;;;;;;1.50;1.40;;;;;;;21.28;33.50;100038.66;5013893;28;20038;-68
2022/04/24 02:44:01;;;;;;;1.70;1.60;;;;;;;21.26;33.92;100038.97;5014194;28;20113;-68
2022/04/24 02:46:27;;;;;;;1.75;1.65;;;;;;;21.26;33.83;100047.25;4996846;28;20129;-68
2022/04/24 02:48:52;;;;;;;1.50;1.50;;;;;;;21.25;33.58;100051.13;5012345;28;20026;-67
2022/04/24 02:51:18;;;;;;;1.58;1.52;;;;;;;21.26;33.73;100036.22;5012329;28;20068;-67
2022/04/24 02:53:43;;;;;;;1.90;1.80;;;;;;;21.27;33.57;100045.28;5013785;28;20087;-67
2022/04/24 02:56:08;;;;;;;1.70;1.60;;;;;;;21.25;33.60;100047.56;5013472;28;20145;-67
2022/04/24 02:58:34;;;;;;;1.70;1.60;;;;;;;21.25;33.77;100042.84;5012008;28;20537;-68
2022/04/24 03:00:59;;;;;;;1.63;1.52;;;;;;;21.25;33.89;100042.84;5012073;28;20052;-67
2022/04/24 03:03:25;;;;;;;1.70;1.60;;;;;;;21.25;33.53;100045.59;5013384;28;20062;-68
2022/04/24 03:05:51;;;;;;;1.67;1.58;;;;;;;21.25;33.79;100044.81;5014051;28;20034;-67
2022/04/24 03:08:18;;;;;;;1.55;1.48;;;;;;;21.25;33.93;100045.59;5012243;28;20053;-67
2022/04/24 03:10:44;;;;;;;1.48;1.40;;;;;;;21.25;33.76;100042.03;5011972;28;20087;-67
2022/04/24 03:13:10;;;;;;;1.60;1.50;;;;;;;21.24;33.85;100043.16;5012944;28;20063;-67
2022/04/24 03:15:36;;;;;;;1.65;1.65;;;;;;;21.24;33.88;100046.72;5013443;28;20132;-67
2022/04/24 03:18:02;;;;;;;1.42;1.40;;;;;;;21.25;33.51;100059.41;5012007;28;20471;-68
2022/04/24 03:20:28;;;;;;;1.52;1.50;;;;;;;21.24;34.00;100046.72;4995775;28;20083;-68
2022/04/24 03:22:53;;;;;;;1.70;1.60;;;;;;;21.24;33.64;100049.47;5012989;28;20060;-68
2022/04/24 03:25:19;;;;;;;1.80;1.70;;;;;;;21.23;33.65;100042.34;5012372;28;20157;-68
2022/04/24 03:27:44;;;;;;;1.80;1.70;;;;;;;21.23;33.63;100049.78;5012197;28;20485;-68
2022/04/24 03:30:10;;;;;;;1.80;1.70;;;;;;;21.23;33.72;100058.06;5011693;28;20054;-68
2022/04/24 03:32:36;;;;;;;1.63;1.52;;;;;;;21.23;33.47;100053.38;5011782;28;20042;-68
2022/04/24 03:35:03;;;;;;;1.65;1.60;;;;;;;21.23;33.57;100056.16;5012910;28;20037;-68
2022/04/24 03:37:29;;;;;;;1.80;1.70;;;;;;;21.22;33.53;100056.44;5011859;28;20117;-68
2022/04/24 03:39:55;;;;;;;1.48;1.42;;;;;;;21.22;33.56;100051.75;5011605;28;20034;-68
2022/04/24 03:42:20;;;;;;;1.70;1.60;;;;;;;21.22;33.45;100060.00;5012455;28;20030;-68
2022/04/24 03:44:46;;;;;;;1.90;1.80;;;;;;;21.20;33.55;100057.56;5012671;28;20030;-68
2022/04/24 03:47:11;;;;;;;1.70;1.60;;;;;;;21.21;33.48;100061.13;5012428;28;20053;-68
2022/04/24 03:49:37;;;;;;;1.95;1.85;;;;;;;21.20;33.48;100038.25;5012654;28;20041;-68
2022/04/24 03:52:03;;;;;;;1.90;1.80;;;;;;;21.21;33.42;100055.63;5011924;28;20385;-68
2022/04/24 03:54:28;;;;;;;1.85;1.75;;;;;;;21.21;33.51;100052.84;5012571;28;20181;-68
2022/04/24 03:56:53;;;;;;;1.88;1.77;;;;;;;21.19;33.46;100058.69;5011542;28;20469;-68
2022/04/24 03:59:19;;;;;;;1.70;1.60;;;;;;;21.19;33.54;100060.63;5012824;28;20026;-68
2022/04/24 04:01:44;;;;;;;2.00;1.90;;;;;;;21.20;33.57;100048.47;5027325;28;20491;-68
2022/04/24 04:04:09;;;;;;;1.80;1.70;;;;;;;21.18;33.51;100051.53;5012445;28;20022;-68
2022/04/24 04:06:35;;;;;;;1.65;1.58;;;;;;;21.19;33.47;100052.34;5011181;28;20034;-68
2022/04/24 04:09:00;;;;;;;1.73;1.63;;;;;;;21.19;33.52;100047.66;5012131;28;20078;-68
2022/04/24 04:11:28;;;;;;;1.90;1.80;;;;;;;21.19;33.49;100057.88;4994797;28;20072;-68
2022/04/24 04:13:53;;;;;;;1.50;1.45;;;;;;;21.18;33.40;100050.72;5011735;28;20030;-68
2022/04/24 04:16:19;;;;;;;1.83;1.73;;;;;;;21.18;33.62;100058.97;5011983;28;20099;-68
2022/04/24 04:18:44;;;;;;;1.80;1.70;;;;;;;21.17;33.72;100058.19;5012238;28;20034;-68
2022/04/24 04:21:09;;;;;;;1.80;1.70;;;;;;;21.17;33.52;100058.19;5012078;28;20474;-68
2022/04/24 04:23:35;;;;;;;1.77;1.67;;;;;;;21.17;33.73;100060.09;5011921;28;20069;-68
2022/04/24 04:26:00;;;;;;;1.85;1.75;;;;;;;21.17;33.49;100071.13;5010898;28;20034;-68
2022/04/24 04:28:26;;;;;;;1.80;1.70;;;;;;;21.15;33.69;100057.66;5010846;28;20120;-68
2022/04/24 04:30:52;;;;;;;2.10;2.00;;;;;;;21.17;33.60;100063.69;5012031;28;20030;-68
2022/04/24 04:33:18;;;;;;;1.80;1.70;;;;;;;21.16;33.65;100064.81;5011555;28;20090;-68
2022/04/24 04:35:43;;;;;;;1.92;1.83;;;;;;;21.15;33.52;100065.91;5010712;28;20389;-67
2022/04/24 04:38:09;;;;;;;1.90;1.80;;;;;;;21.16;33.47;100073.09;5011271;28;20069;-67
2022/04/24 04:40:34;;;;;;;1.92;1.83;;;;;;;21.16;33.60;100075.84;5011661;28;20470;-67
2022/04/24 04:43:00;;;;;;;1.95;1.85;;;;;;;21.17;33.71;100076.66;5010657;28;20041;-68
2022/04/24 04:45:25;;;;;;;1.90;1.80;;;;;;;21.16;33.82;100075.03;5010562;28;20394;-68
2022/04/24 04:47:51;;;;;;;1.83;1.73;;;;;;;21.15;33.75;100074.19;5011162;28;20033;-67
2022/04/24 04:50:17;;;;;;;1.85;1.75;;;;;;;21.16;33.74;100073.09;5011655;28;20042;-68
2022/04/24 04:52:43;;;;;;;1.90;1.80;;;;;;;21.16;33.86;100086.06;5011712;28;20381;-68
2022/04/24 04:55:08;;;;;;;2.05;1.95;;;;;;;21.16;33.85;100086.06;5011950;28;20470;-68
2022/04/24 04:57:34;;;;;;;1.92;1.83;;;;;;;21.16;33.81;100091.59;5011623;28;20117;-67
2022/04/24 04:59:59;;;;;;;1.58;1.52;;;;;;;21.16;33.90;100086.06;5011615;28;20030;-67
2022/04/24 05:02:25;;;;;;;1.88;1.77;;;;;;;21.14;33.94;100078.09;5011521;28;20042;-67
2022/04/24 05:04:50;;;;;;;1.90;1.80;;;;;;;21.16;33.88;100086.06;5010799;28;20068;-68
2022/04/24 05:07:16;;;;;;;1.80;1.70;;;;;;;21.16;33.93;100097.91;4993924;28;20034;-68
2022/04/24 05:09:41;;;;;;;2.05;1.95;;;;;;;21.16;33.87;100092.38;5010152;28;20058;-67
2022/04/24 05:12:07;;;;;;;2.00;1.90;;;;;;;21.16;33.93;100097.91;5010292;28;20050;-67
2022/04/24 05:14:33;;;;;;;1.83;1.73;;;;;;;21.15;33.92;100093.50;5011663;28;20112;-67
2022/04/24 05:16:59;;;;;;;2.05;1.95;;;;;;;21.16;33.91;100105.38;5011326;28;20068;-67
2022/04/24 05:19:25;;;;;;;1.90;1.80;;;;;;;21.15;34.05;100101.78;5011374;28;20044;-67
2022/04/24 05:21:51;;;;;;;1.88;1.77;;;;;;;21.15;33.82;100104.53;5011062;28;20554;-68
2022/04/24 05:24:16;;;;;;;1.98;1.88;;;;;;;21.16;34.03;100108.13;5010948;28;20056;-67
2022/04/24 05:26:42;;;;;;;2.10;2.00;;;;;;;21.17;33.91;100113.34;5010099;28;20030;-68
2022/04/24 05:29:07;;;;;;;1.80;1.70;;;;;;;21.17;33.78;100115.25;5011207;28;20105;-68
2022/04/24 05:31:33;;;;;;;1.75;1.65;;;;;;;21.17;34.06;100113.34;5011720;28;20086;-67
2022/04/24 05:33:58;;;;;;;1.90;1.80;;;;;;;21.16;33.79;100119.16;5010402;28;20450;-68
2022/04/24 05:36:24;;;;;;;2.20;2.10;;;;;;;21.09;32.45;100118.75;5011123;28;20030;-68
2022/04/24 05:38:50;;;;;;;2.50;2.30;;;;;;;20.87;32.17;100117.47;5010397;28;20042;-68
2022/04/24 05:41:15;;;;;;;2.85;2.22;;;;;;;20.68;32.43;100118.34;5010725;28;20037;-68
2022/04/24 05:43:41;;;;;;;2.65;2.45;;;;;;;20.53;32.84;100120.50;5009866;28;20030;-68
2022/04/24 05:46:06;;;;;;;3.22;2.60;;;;;;;20.36;32.72;100127.34;5009845;28;20076;-67
2022/04/24 05:48:31;;;;;;;2.72;2.55;;;;;;;20.26;32.88;100124.75;5009868;28;20038;-68
2022/04/24 05:50:57;;;;;;;2.90;2.70;;;;;;;20.14;32.92;100120.50;4996239;28;20061;-68
2022/04/24 05:53:22;;;;;;;2.60;2.40;;;;;;;20.07;33.08;100122.81;5013167;28;20034;-67
2022/04/24 05:55:48;;;;;;;2.58;2.38;;;;;;;20.01;33.18;100123.19;5015233;28;20034;-67
2022/04/24 05:58:13;;;;;;;2.40;2.30;;;;;;;19.96;33.21;100127.63;5014345;28;20042;-69
2022/04/24 06:00:39;;;;;;;2.70;2.50;;;;;;;19.90;33.30;100123.31;5013218;28;20034;-68
2022/04/24 06:03:05;;;;;;;2.70;2.50;;;;;;;19.86;33.50;100129.72;5014763;28;20450;-68
2022/04/24 06:05:30;;;;;;;2.30;2.20;;;;;;;19.82;33.36;100134.16;5014205;28;20041;-67
2022/04/24 06:07:56;;;;;;;2.58;2.38;;;;;;;19.78;33.35;100129.25;5014045;28;20045;-67
2022/04/24 06:10:21;;;;;;;3.00;2.70;;;;;;;19.76;33.82;100133.38;5014444;28;20034;-66
2022/04/24 06:12:48;;;;;;;2.70;2.50;;;;;;;19.74;33.52;100133.69;5014458;28;20370;-66
2022/04/24 06:15:20;;;;;;;2.67;2.47;;;;;;;19.74;33.75;100144.69;5014156;28;20087;-71
2022/04/24 06:17:47;;;;;;;2.35;2.22;;;;;;;19.71;33.75;100142.53;5013309;28;20037;-68
2022/04/24 06:20:13;;;;;;;2.63;2.42;;;;;;;19.66;33.46;100144.50;5013927;28;20594;-74
2022/04/24 06:22:49;;;;;;;2.50;2.40;;;;;;;19.62;33.90;100142.34;5013636;28;20037;-68
2022/04/24 06:25:35;;;;;;;2.60;2.40;;;;;;;19.64;34.09;100131.84;5014214;28;20125;-68
2022/04/24 06:28:02;;;;;;;2.80;2.60;;;;;;;19.67;33.73;100129.66;5013415;28;20129;-68
2022/04/24 06:30:30;;;;;;;2.60;2.40;;;;;;;19.69;33.45;100128.22;5013886;28;20026;-68
2022/04/24 06:32:57;;;;;;;2.63;2.45;;;;;;;19.73;33.42;100139.47;5012947;28;20129;-70
2022/04/24 06:35:23;;;;;;;2.40;2.30;;;;;;;19.74;33.25;100149.38;5013818;28;20034;-68
2022/04/24 06:37:53;;;;;;;2.80;2.60;;;;;;;19.73;33.17;100140.28;5013497;28;20124;-69
2022/04/24 06:40:19;;;;;;;2.58;2.38;;;;;;;19.75;33.40;100143.56;5013717;28;20095;-69
2022/04/24 06:42:57;;;;;;;2.72;2.53;;;;;;;19.79;33.57;100158.41;5014115;28;20073;-68
2022/04/24 06:45:31;;;;;;;2.75;2.55;;;;;;;19.80;33.43;100151.78;5013966;28;20118;-69
2022/04/24 06:48:06;;;;;;;2.70;2.50;;;;;;;19.79;33.35;100152.88;5012594;28;20069;-68
2022/04/24 06:50:33;;;;;;;2.50;2.40;;;;;;;19.78;33.02;100150.44;5012611;28;20370;-69
2022/04/24 06:52:59;;;;;;;2.53;2.30;;;;;;;19.76;32.93;100161.72;5012516;28;20514;-69
2022/04/24 06:55:24;;;;;;;3.00;2.45;;;;;;;19.75;32.77;100159.25;5013521;28;20033;-68
2022/04/24 06:57:51;;;;;;;2.72;2.53;;;;;;;19.73;32.79;100156.00;5013432;28;20034;-68
2022/04/24 07:00:18;;;;;;;2.65;2.47;;;;;;;19.72;32.82;100162.59;5013184;28;20410;-69
2022/04/24 07:02:43;;;;;;;2.35;2.25;;;;;;;19.72;32.75;100157.09;5013239;28;20482;-68
2022/04/24 07:05:08;;;;;;;2.40;2.20;;;;;;;19.72;32.82;100157.91;4995924;28;20226;-69
2022/04/24 07:07:34;;;;;;;2.58;2.38;;;;;;;19.70;32.80;100157.38;5012425;28;20038;-67
2022/04/24 07:09:59;;;;;;;2.55;2.35;;;;;;;19.67;32.79;100152.47;5013065;28;20058;-67
2022/04/24 07:12:25;;;;;;;3.72;2.50;;;;;;;19.64;32.68;100162.13;5011965;28;20037;-66
2022/04/24 07:14:50;;;;;;;2.55;2.35;;;;;;;19.63;32.49;100151.41;5012906;28;20179;-67
2022/04/24 07:17:17;;;;;;;2.60;2.40;;;;;;;19.60;32.96;100155.56;5011712;28;20478;-67
2022/04/24 07:19:43;;;;;;;2.67;2.50;;;;;;;19.59;32.64;100162.19;5012255;28;20065;-67
2022/04/24 07:22:08;;;;;;;2.72;2.53;;;;;;;19.57;32.77;100156.16;5012899;28;20469;-67
2022/04/24 07:24:34;;;;;;;2.60;2.40;;;;;;;19.58;33.15;100154.25;5013326;28;20052;-68
2022/04/24 07:26:59;;;;;;;2.50;2.30;;;;;;;19.59;32.85;100167.69;4995464;28;20030;-67
2022/04/24 07:29:25;;;;;;;2.85;2.63;;;;;;;19.62;33.06;100175.38;5013005;28;20038;-69
2022/04/24 07:31:50;;;;;;;2.50;2.30;;;;;;;19.69;33.46;100185.19;5011694;28;20029;-68
2022/04/24 07:34:16;;;;;;;2.35;2.17;;;;;;;19.77;33.42;100173.56;5013154;28;20389;-69
2022/04/24 07:36:41;;;;;;;2.60;2.40;;;;;;;19.83;33.16;100169.66;5011357;28;20030;-69
2022/04/24 07:39:07;;;;;;;2.50;2.30;;;;;;;19.89;33.07;100187.75;5011977;28;20041;-69
2022/04/24 07:41:32;;;;;;;2.30;2.08;;;;;;;19.96;33.09;100179.09;5011878;28;20038;-69
2022/04/24 07:43:57;;;;;;;2.25;2.05;;;;;;;20.01;32.99;100190.06;5012533;28;20041;-68
2022/04/24 07:46:23;;;;;;;2.42;2.17;;;;;;;20.06;33.17;100178.16;5012770;28;20363;-69
2022/04/24 07:48:49;;;;;;;2.05;1.95;;;;;;;20.10;32.88;100176.47;5012703;28;20122;-68
2022/04/24 07:51:14;;;;;;;2.03;1.92;;;;;;;20.13;32.82;100175.88;4995458;28;20038;-68
2022/04/24 07:53:42;;;;;;;2.10;2.00;;;;;;;20.16;32.84;100178.84;5012896;28;20381;-68
2022/04/24 07:56:08;;;;;;;2.08;1.98;;;;;;;20.20;32.72;100170.81;5011363;28;20091;-69
2022/04/24 07:58:33;;;;;;;2.10;2.00;;;;;;;20.23;32.69;100184.00;5011562;28;20029;-68
2022/04/24 08:00:59;;;;;;;2.15;1.95;;;;;;;20.26;32.66;100185.34;5012620;28;20029;-68
2022/04/24 08:03:24;;;;;;;2.08;1.98;;;;;;;20.27;32.64;100182.31;5010885;28;20505;-69
2022/04/24 08:05:51;;;;;;;2.20;2.10;;;;;;;20.28;32.81;100197.69;5011276;28;20034;-68
2022/04/24 08:08:18;;;;;;;2.83;1.83;;;;;;;20.32;32.96;100189.66;5012188;28;20149;-67
2022/04/24 08:10:47;;;;;;;2.40;1.95;;;;;;;20.33;33.00;100181.09;5012384;28;20038;-68
2022/04/24 08:13:13;;;;;;;2.00;1.90;;;;;;;20.35;33.12;100191.03;5010599;28;20042;-68
2022/04/24 08:15:39;;;;;;;2.15;2.05;;;;;;;20.37;33.16;100186.81;5011998;28;20367;-68
2022/04/24 08:18:05;;;;;;;2.25;2.13;;;;;;;20.38;32.96;100187.66;5010980;28;20190;-68
2022/04/24 08:20:32;;;;;;;2.03;1.90;;;;;;;20.39;33.22;100195.63;5011889;28;20030;-68
2022/04/24 08:22:59;;;;;;;2.05;1.95;;;;;;;20.41;33.01;100190.63;5012089;28;20044;-68
2022/04/24 08:25:27;;;;;;;2.05;1.95;;;;;;;20.41;32.81;100187.06;5012336;28;20030;-68
2022/04/24 08:27:54;;;;;;;2.00;1.90;;;;;;;20.43;33.34;100193.09;5011817;28;20086;-68
2022/04/24 08:30:23;;;;;;;2.00;1.90;;;;;;;20.43;33.09;100193.94;5012024;28;20108;-68
2022/04/24 08:32:49;;;;;;;1.92;1.83;;;;;;;20.45;33.07;100191.69;5012224;28;20034;-68
2022/04/24 08:35:17;;;;;;;2.00;1.90;;;;;;;20.46;33.12;100186.97;5011899;28;20478;-68
2022/04/24 08:37:44;;;;;;;2.33;2.10;;;;;;;20.48;33.28;100190.28;5011855;28;20033;-68
2022/04/24 08:40:12;;;;;;;2.30;2.10;;;;;;;20.47;32.84;100181.16;5010710;28;20038;-68
2022/04/24 08:42:38;;;;;;;2.30;2.15;;;;;;;20.49;32.93;100187.22;5012096;28;20034;-68
2022/04/24 08:45:05;;;;;;;2.10;2.00;;;;;;;20.50;33.87;100199.06;5011845;28;20044;-68
2022/04/24 08:47:31;;;;;;;1.95;1.85;;;;;;;20.50;33.66;100199.84;5011064;28;20095;-68
2022/04/24 08:50:01;;;;;;;2.15;2.05;;;;;;;20.53;33.16;100203.97;5011070;28;20042;-68
2022/04/24 08:52:28;;;;;;;3.28;1.92;;;;;;;20.51;33.21;100193.25;5011393;28;20401;-68
2022/04/24 08:54:55;;;;;;;2.00;1.90;;;;;;;20.53;32.94;100192.94;5011973;28;20037;-68
2022/04/24 08:57:26;;;;;;;1.92;1.83;;;;;;;20.54;33.20;100200.09;5010671;28;20034;-68
2022/04/24 08:59:52;;;;;;;2.42;2.22;;;;;;;20.55;33.13;100200.91;5011649;28;20070;-68
2022/04/24 09:02:17;;;;;;;2.13;2.03;;;;;;;20.55;33.32;100210.00;5010334;28;20058;-68
2022/04/24 09:04:43;;;;;;;1.90;1.80;;;;;;;20.56;33.32;100203.38;5010282;28;20061;-68
2022/04/24 09:07:10;;;;;;;2.20;2.05;;;;;;;20.56;33.03;100195.09;5011559;28;20462;-68
2022/04/24 09:09:43;;;;;;;2.03;1.92;;;;;;;20.57;32.95;100202.25;5011696;28;20065;-69
2022/04/24 09:12:14;;;;;;;2.33;2.13;;;;;;;20.53;32.73;100190.19;5010157;28;20069;-68
2022/04/24 09:14:41;;;;;;;2.80;2.60;;;;;;;20.46;32.02;100200.75;5010146;28;20022;-71
2022/04/24 09:17:15;;;;;;;2.70;2.50;;;;;;;20.38;32.98;100202.25;5010634;28;20133;-68
2022/04/24 09:19:40;;;;;;;2.95;2.65;;;;;;;20.32;32.61;100196.00;5011646;28;20026;-68
2022/04/24 09:22:07;;;;;;;3.65;3.20;;;;;;;20.31;32.56;100202.63;5011399;28;20049;-68
2022/04/24 09:24:41;;;;;;;3.60;3.13;;;;;;;20.33;32.78;100197.63;5011321;28;20069;-68
2022/04/24 09:27:07;;;;;;;4.25;3.10;;;;;;;20.34;32.79;100209.47;5011203;28;20121;-68
2022/04/24 09:29:32;;;;;;;4.53;3.42;;;;;;;20.37;32.65;100200.59;5011252;28;20030;-67
2022/04/24 09:31:58;;;;;;;3.80;3.17;;;;;;;20.40;32.77;100218.47;5011493;28;20037;-67
2022/04/24 09:34:30;;;;;;;4.25;2.80;;;;;;;20.43;32.71;100210.47;4993477;28;20037;-68
2022/04/24 09:37:00;;;;;;;3.35;2.83;;;;;;;20.46;32.74;100218.13;5011497;28;20038;-68
2022/04/24 09:39:27;;;;;;;3.47;2.63;;;;;;;20.48;32.69;100212.31;5011103;28;20237;-68
2022/04/24 09:42:04;;;;;;;2.92;2.70;;;;;;;20.52;32.67;100199.56;5011276;28;20038;-68
2022/04/24 09:44:37;;;;;;;2.60;2.40;;;;;;;20.54;32.92;100204.81;5009762;28;20030;-68
2022/04/24 09:47:04;;;;;;;2.60;2.40;;;;;;;20.55;32.53;100203.66;5011023;28;20026;-68
2022/04/24 09:49:33;;;;;;;2.35;2.15;;;;;;;20.56;32.63;100197.03;5011462;28;20438;-68
2022/04/24 09:52:00;;;;;;;2.70;2.50;;;;;;;20.59;32.61;100199.19;5010823;28;20066;-68
2022/04/24 09:54:27;;;;;;;2.72;2.50;;;;;;;20.59;32.82;100208.28;5009735;28;20045;-68
2022/04/24 09:56:53;;;;;;;2.50;2.30;;;;;;;20.61;32.79;100205.22;5010916;28;20087;-68
2022/04/24 09:59:20;;;;;;;2.50;2.30;;;;;;;20.62;32.68;100210.44;5009443;28;20041;-68
2022/04/24 10:01:46;;;;;;;2.80;2.50;;;;;;;20.63;32.74;100206.56;5009796;28;20420;-68
2022/04/24 10:04:12;;;;;;;2.38;2.20;;;;;;;20.64;32.55;100194.44;5011351;28;20042;-68
2022/04/24 10:06:40;;;;;;;2.25;2.08;;;;;;;20.66;32.66;100199.69;5010804;28;20087;-68
2022/04/24 10:09:09;;;;;;;2.53;2.33;;;;;;;20.66;32.44;100205.19;5009095;28;20498;-68
2022/04/24 10:11:34;;;;;;;2.67;2.47;;;;;;;20.68;32.91;100202.94;5010707;28;20034;-70
2022/04/24 10:14:05;;;;;;;2.70;2.50;;;;;;;20.66;32.90;100208.75;5009546;28;20045;-69
2022/04/24 10:16:31;;;;;;;2.67;2.47;;;;;;;20.68;33.11;100203.78;5010988;28;20359;-69
2022/04/24 10:19:15;;;;;;;2.53;2.33;;;;;;;20.78;33.19;100205.53;5009343;28;20037;-67
2022/04/24 10:22:06;;;;;;;2.60;2.38;;;;;;;20.92;33.11;100211.13;5010678;28;20049;-67
2022/04/24 10:24:40;;;;;;;2.80;2.60;;;;;;;21.07;33.14;100198.19;5011219;28;20058;-68
2022/04/24 10:27:07;;;;;;;2.88;2.67;;;;;;;21.20;32.36;100213.97;5010531;28;20029;-67
2022/04/24 10:29:32;;;;;;;2.40;2.22;;;;;;;21.27;32.67;100208.06;5010777;28;20036;-66
2022/04/24 10:31:59;;;;;;;2.22;2.13;;;;;;;21.24;32.32;100230.75;5011007;28;20034;-66
2022/04/24 10:34:26;;;;;;;2.83;2.20;;;;;;;21.19;32.27;100221.44;5009239;28;20038;-67
2022/04/24 10:37:02;;;;;;;2.35;2.25;;;;;;;21.17;32.32;100218.16;5011834;28;20492;-67
2022/04/24 10:39:29;;;;;;;2.53;2.38;;;;;;;21.13;32.15;100208.84;5014034;28;20133;-67
2022/04/24 10:42:12;;;;;;;2.50;2.30;;;;;;;21.12;32.08;100207.19;5013933;28;20030;-67
2022/04/24 10:44:50;;;;;;;2.30;2.20;;;;;;;21.11;32.46;100224.88;5014317;28;20030;-66
2022/04/24 10:47:16;;;;;;;2.58;2.33;;;;;;;21.10;32.34;100211.41;5014200;28;20041;-66
2022/04/24 10:49:41;;;;;;;2.13;2.03;;;;;;;21.10;32.12;100208.66;5013877;28;20030;-67
2022/04/24 10:52:07;;;;;;;2.47;2.20;;;;;;;21.09;32.26;100207.00;5012280;28;20034;-67
2022/04/24 10:54:35;;;;;;;2.28;2.10;;;;;;;21.10;32.12;100219.69;5013419;28;20450;-67
2022/04/24 10:57:01;;;;;;;2.15;2.00;;;;;;;21.10;32.40;100216.91;5013478;28;20051;-67
2022/04/24 10:59:26;;;;;;;2.38;2.20;;;;;;;21.09;32.43;100254.69;5012259;28;20037;-67
2022/04/24 11:01:57;;;;;;;2.20;2.10;;;;;;;21.10;32.42;100203.94;5013326;28;20450;-67
2022/04/24 11:04:23;;;;;;;2.05;1.95;;;;;;;21.10;32.20;100214.97;5013321;28;20034;-66
2022/04/24 11:06:55;;;;;;;2.10;2.00;;;;;;;21.11;32.31;100219.38;5013274;28;20030;-66
2022/04/24 11:09:22;;;;;;;2.08;1.95;;;;;;;21.10;32.29;100225.19;5013064;28;20072;-67
2022/04/24 11:11:50;;;;;;;2.40;2.20;;;;;;;21.12;32.22;100212.72;5012252;28;20065;-67
2022/04/24 11:14:25;;;;;;;2.40;2.25;;;;;;;21.12;32.53;100234.78;5013236;28;20025;-67
2022/04/24 11:16:52;;;;;;;2.20;2.10;;;;;;;21.12;31.92;100215.47;5013172;28;20041;-67
2022/04/24 11:19:42;;;;;;;2.00;1.90;;;;;;;21.13;32.48;100216.31;5012244;28;20037;-66
2022/04/24 11:22:10;;;;;;;2.10;1.90;;;;;;;21.13;32.28;100228.16;5012304;28;20075;-67